Time;durP1;ratioP1;P1;durP2;ratioP2;P2;SDS_P1;SDS_P2;PMS_P1;PMS_P2;Temp;Humidity;BMP_temperature;BMP_pressure;BME280_temperature;BME280_humidity;BME280_pressure;Samples;Min_cycle;Max_cycle;Signal;HPM_P1;HPM_P2
2023/03/02 00:04:34;;;;;;;0.82;0.80;;;;;;;0.53;100.00;102492.41;10410406;28;20440;-79
2023/03/02 00:09:37;;;;;;;0.10;0.10;;;;;;;0.46;100.00;102475.75;10392810;28;20091;-77
2023/03/02 00:14:39;;;;;;;1.58;1.48;;;;;;;0.52;100.00;102465.28;10395221;28;20045;-78
2023/03/02 00:19:40;;;;;;;0.40;0.40;;;;;;;0.47;100.00;102448.00;10416557;28;20037;-79
2023/03/02 00:24:42;;;;;;;2.00;1.60;;;;;;;0.43;100.00;102417.13;10389611;28;20049;-77
2023/03/02 00:29:44;;;;;;;0.30;0.25;;;;;;;0.40;100.00;102394.94;10381947;28;20069;-78
2023/03/02 00:34:45;;;;;;;1.88;1.08;;;;;;;0.31;100.00;102359.50;10370311;28;20107;-78
2023/03/02 00:39:50;;;;;;;0.20;0.20;;;;;;;0.36;100.00;102328.59;10378786;28;20397;-78
2023/03/02 00:44:52;;;;;;;0.80;0.80;;;;;;;0.30;100.00;102322.22;10389831;28;20057;-79
2023/03/02 00:49:55;;;;;;;2.28;1.00;;;;;;;0.30;100.00;102280.75;10396221;28;20041;-79
2023/03/02 00:54:56;;;;;;;2.15;1.50;;;;;;;0.30;100.00;102257.94;10393076;28;20451;-78
2023/03/02 00:59:58;;;;;;;0.30;0.30;;;;;;;0.32;100.00;102243.78;10376057;28;20090;-77
2023/03/02 01:05:10;;;;;;;0.20;0.20;;;;;;;0.51;100.00;102210.78;10393534;28;20132;-78
2023/03/02 01:10:13;;;;;;;0.98;0.85;;;;;;;0.46;100.00;102191.75;10389771;28;20045;-77
2023/03/02 01:15:15;;;;;;;3.28;0.85;;;;;;;0.51;100.00;102180.34;10411748;28;20049;-76
2023/03/02 01:20:17;;;;;;;2.38;0.93;;;;;;;0.55;100.00;102162.13;10391577;28;20095;-76
2023/03/02 01:25:19;;;;;;;0.10;0.10;;;;;;;0.57;100.00;102157.19;10393320;28;20038;-76
2023/03/02 01:30:23;;;;;;;0.25;0.25;;;;;;;0.51;100.00;102149.94;10394028;28;20045;-78
2023/03/02 01:35:24;;;;;;;1.13;1.02;;;;;;;0.55;100.00;102152.00;10378425;28;20053;-77
2023/03/02 01:40:26;;;;;;;0.95;0.93;;;;;;;0.47;100.00;102140.28;10381680;28;20053;-78
2023/03/02 01:45:53;;;;;;;0.20;0.20;;;;;;;0.28;100.00;102141.22;10394440;28;20041;-78
2023/03/02 01:51:05;;;;;;;0.20;0.20;;;;;;;0.43;100.00;102125.56;10380254;28;20045;-78
2023/03/02 01:56:08;;;;;;;0.20;0.20;;;;;;;0.23;100.00;102122.19;10400908;28;20480;-79
2023/03/02 02:01:18;;;;;;;0.15;0.15;;;;;;;0.21;100.00;102112.66;10384570;28;20037;-78
2023/03/02 02:06:25;;;;;;;0.20;0.20;;;;;;;0.11;100.00;102105.91;10389910;28;20444;-78
2023/03/02 02:11:27;;;;;;;1.90;0.60;;;;;;;0.18;100.00;102098.09;10402340;28;20136;-78
2023/03/02 02:16:32;;;;;;;0.52;0.52;;;;;;;0.07;100.00;102094.63;10420868;28;20068;-77
2023/03/02 02:21:35;;;;;;;2.30;2.10;;;;;;;0.14;100.00;102080.81;10405882;28;20160;-78
2023/03/02 02:26:50;;;;;;;1.65;1.55;;;;;;;0.12;100.00;102072.19;10385619;28;20512;-78
2023/03/02 02:32:01;;;;;;;0.15;0.15;;;;;;;0.10;100.00;102078.78;10401050;28;20065;-77
2023/03/02 02:37:08;;;;;;;0.20;0.20;;;;;;;0.02;100.00;102084.81;10399772;28;20049;-78
2023/03/02 02:42:23;;;;;;;0.10;0.10;;;;;;;-0.02;100.00;102074.41;10399129;28;20444;-78
2023/03/02 02:47:25;;;;;;;0.28;0.28;;;;;;;-0.09;100.00;102087.28;10401812;28;20489;-77
2023/03/02 02:52:27;;;;;;;8.07;0.85;;;;;;;-0.06;100.00;102090.13;10400822;28;20136;-77
2023/03/02 02:57:30;;;;;;;2.83;0.75;;;;;;;-0.08;100.00;102083.13;10398250;28;20523;-77
2023/03/02 03:02:36;;;;;;;2.97;2.75;;;;;;;-0.18;100.00;102084.84;10382909;28;20095;-78
2023/03/02 03:07:38;;;;;;;0.85;0.85;;;;;;;-0.27;100.00;102096.69;10401200;28;20099;-77
2023/03/02 03:12:41;;;;;;;0.85;0.85;;;;;;;-0.36;100.00;102091.72;10400263;28;20041;-78
2023/03/02 03:18:01;;;;;;;1.95;1.77;;;;;;;-0.48;100.00;102085.53;10383680;28;20107;-79
2023/03/02 03:23:03;;;;;;;0.80;0.80;;;;;;;-0.41;100.00;102081.91;10410615;28;20037;-79
2023/03/02 03:28:05;;;;;;;0.40;0.40;;;;;;;-0.46;100.00;102063.78;10403998;28;20655;-78
2023/03/02 03:33:10;;;;;;;2.58;1.48;;;;;;;-0.55;100.00;102076.50;10394070;28;20049;-78
2023/03/02 03:38:13;;;;;;;1.98;1.35;;;;;;;-0.62;100.00;102063.16;10396801;28;20411;-79
2023/03/02 03:43:16;;;;;;;0.30;0.30;;;;;;;-0.52;100.00;102063.22;10396381;28;20056;-78
2023/03/02 03:48:23;;;;;;;0.47;0.47;;;;;;;-0.53;100.00;102061.44;10399792;28;20488;-78
2023/03/02 03:53:27;;;;;;;1.02;1.00;;;;;;;-0.57;100.00;102059.41;10379137;28;20045;-79
2023/03/02 03:58:30;;;;;;;0.77;0.77;;;;;;;-0.61;100.00;102057.34;10398366;28;20124;-78
2023/03/02 04:03:32;;;;;;;2.13;1.52;;;;;;;-0.57;100.00;102057.75;10386734;28;20042;-77
2023/03/02 04:08:34;;;;;;;0.57;0.57;;;;;;;-0.70;100.00;102065.88;10394003;28;20584;-77
2023/03/02 04:13:36;;;;;;;0.65;0.65;;;;;;;-0.57;100.00;102062.81;10392202;28;20565;-77
2023/03/02 04:18:38;;;;;;;0.85;0.85;;;;;;;-0.61;100.00;102062.41;10399752;28;20056;-78
2023/03/02 04:23:40;;;;;;;0.73;0.73;;;;;;;-0.76;100.00;102067.88;10370295;28;20076;-77
2023/03/02 04:28:42;;;;;;;0.68;0.65;;;;;;;-0.64;100.00;102052.91;10397746;28;20049;-77
2023/03/02 04:33:44;;;;;;;1.30;1.20;;;;;;;-0.72;100.00;102056.38;10395516;28;20512;-78
2023/03/02 04:38:46;;;;;;;0.22;0.22;;;;;;;-0.63;100.00;102051.28;10398787;28;20037;-77
2023/03/02 04:43:48;;;;;;;0.63;0.63;;;;;;;-0.72;100.00;102069.03;10378459;28;20050;-77
2023/03/02 04:48:50;;;;;;;2.33;1.67;;;;;;;-0.76;100.00;102070.41;10390650;28;20072;-78
2023/03/02 04:53:59;;;;;;;0.77;0.77;;;;;;;-0.74;100.00;102070.53;10380383;28;20041;-79
2023/03/02 04:59:01;;;;;;;1.23;1.13;;;;;;;-0.76;100.00;102078.00;10396531;28;20049;-79
2023/03/02 05:04:03;;;;;;;0.10;0.10;;;;;;;-0.87;100.00;102091.31;10398266;28;20045;-79
2023/03/02 05:09:05;;;;;;;0.17;0.17;;;;;;;-0.91;100.00;102102.81;10392167;28;20068;-77
2023/03/02 05:14:09;;;;;;;0.40;0.40;;;;;;;-0.88;100.00;102098.00;10394281;28;20087;-77
2023/03/02 05:19:12;;;;;;;1.13;1.02;;;;;;;-0.98;100.00;102111.47;10410628;28;20041;-78
2023/03/02 05:24:14;;;;;;;1.75;1.52;;;;;;;-1.00;100.00;102107.88;10389544;28;20050;-78
2023/03/02 05:29:15;;;;;;;0.90;0.90;;;;;;;-1.06;100.00;102107.31;10394961;28;20103;-78
2023/03/02 05:34:17;;;;;;;0.40;0.40;;;;;;;-1.18;100.00;102112.13;10395541;28;20042;-78
2023/03/02 05:39:19;;;;;;;0.47;0.47;;;;;;;-1.24;100.00;102101.47;10391597;28;20651;-79
2023/03/02 05:44:20;;;;;;;0.20;0.20;;;;;;;-1.16;100.00;102094.59;10400998;28;20508;-78
2023/03/02 05:49:22;;;;;;;0.85;0.73;;;;;;;-1.34;100.00;102094.66;10408344;28;20512;-78
2023/03/02 05:54:24;;;;;;;0.65;0.65;;;;;;;-1.21;100.00;102086.59;10399204;28;20046;-78
2023/03/02 05:59:25;;;;;;;0.30;0.30;;;;;;;-1.21;100.00;102096.69;10385085;28;20061;-78
2023/03/02 06:04:27;;;;;;;0.30;0.30;;;;;;;-1.20;100.00;102102.63;10397390;28;20417;-78
2023/03/02 06:09:29;;;;;;;1.55;1.08;;;;;;;-1.33;100.00;102106.56;10397566;28;20065;-77
2023/03/02 06:14:30;;;;;;;0.13;0.13;;;;;;;-1.28;100.00;102104.47;10415623;28;20393;-79
2023/03/02 06:19:32;;;;;;;0.52;0.52;;;;;;;-1.24;100.00;102098.06;10420173;28;21752;-77
2023/03/02 06:24:34;;;;;;;0.22;0.22;;;;;;;-1.26;100.00;102100.41;10420105;28;20092;-78
2023/03/02 06:29:35;;;;;;;1.98;0.68;;;;;;;-1.18;100.00;102103.69;10416344;28;20088;-77
2023/03/02 06:34:37;;;;;;;1.45;1.38;;;;;;;-1.24;100.00;102101.47;10407103;28;20037;-77
2023/03/02 06:39:38;;;;;;;0.10;0.10;;;;;;;-1.13;100.00;102104.97;10410854;28;20164;-77
2023/03/02 06:44:40;;;;;;;0.10;0.10;;;;;;;-1.27;100.00;102116.38;10405453;28;20656;-78
2023/03/02 06:49:42;;;;;;;0.10;0.10;;;;;;;-1.12;100.00;102102.59;10419625;28;20068;-76
2023/03/02 06:54:43;;;;;;;0.88;0.88;;;;;;;-1.02;100.00;102113.56;10412211;28;20107;-77
2023/03/02 06:59:45;;;;;;;0.15;0.15;;;;;;;-0.90;100.00;102114.72;10416429;28;20087;-77
2023/03/02 07:04:46;;;;;;;0.28;0.28;;;;;;;-0.90;100.00;102109.66;10398200;28;20507;-76
2023/03/02 07:09:48;;;;;;;0.10;0.10;;;;;;;-0.91;100.00;102117.06;10416613;28;20120;-77
2023/03/02 07:14:50;;;;;;;0.43;0.43;;;;;;;-0.72;100.00;102118.03;10385663;28;20079;-77
2023/03/02 07:19:51;;;;;;;4.00;2.28;;;;;;;-0.67;100.00;102109.19;10408701;28;20041;-76
2023/03/02 07:24:53;;;;;;;0.47;0.47;;;;;;;-0.66;100.00;102116.03;10398987;28;20038;-77
2023/03/02 07:29:54;;;;;;;6.85;1.75;;;;;;;-0.64;100.00;102116.19;10417194;28;20381;-77
2023/03/02 07:34:56;;;;;;;0.20;0.20;;;;;;;-0.81;100.00;102114.66;10400060;28;20484;-76
2023/03/02 07:39:58;;;;;;;1.15;1.05;;;;;;;-0.64;100.00;102118.72;10384236;28;20382;-78
2023/03/02 07:45:03;;;;;;;0.20;0.20;;;;;;;-0.45;100.00;102100.13;10425146;28;20137;-77
2023/03/02 07:50:05;;;;;;;0.75;0.75;;;;;;;-0.32;100.00;102103.88;10376979;28;20555;-76
2023/03/02 07:55:07;;;;;;;0.80;0.80;;;;;;;-0.35;100.00;102100.19;10395986;28;20046;-75
2023/03/02 08:00:10;;;;;;;0.40;0.40;;;;;;;-0.35;100.00;102101.09;10393523;28;20045;-77
2023/03/02 08:05:15;;;;;;;1.55;1.33;;;;;;;-0.09;100.00;102096.56;10413567;28;20060;-77
2023/03/02 08:10:17;;;;;;;0.20;0.20;;;;;;;0.24;100.00;102077.44;10394784;28;20044;-76
2023/03/02 08:15:19;;;;;;;0.63;0.63;;;;;;;0.22;100.00;102084.91;10398871;28;20050;-77
2023/03/02 08:20:20;;;;;;;0.35;0.35;;;;;;;0.37;100.00;102089.53;10415901;28;20493;-76
2023/03/02 08:25:22;;;;;;;0.65;0.65;;;;;;;0.49;100.00;102084.63;10414831;28;20068;-78
2023/03/02 08:30:24;;;;;;;2.20;2.00;;;;;;;0.51;100.00;102083.13;10388427;28;20049;-78
2023/03/02 08:35:26;;;;;;;0.90;0.63;;;;;;;0.87;100.00;102089.53;10377442;28;20045;-78
2023/03/02 08:40:28;;;;;;;0.20;0.20;;;;;;;1.12;100.00;102102.63;10389411;28;20135;-80
2023/03/02 08:45:29;;;;;;;0.30;0.30;;;;;;;1.86;100.00;102113.75;10393303;28;20046;-79
2023/03/02 08:50:34;;;;;;;0.60;0.60;;;;;;;2.01;100.00;102119.16;10376150;28;20049;-80
2023/03/02 08:55:36;;;;;;;1.23;0.47;;;;;;;1.40;100.00;102140.47;10390760;28;20103;-79
2023/03/02 09:00:37;;;;;;;3.13;1.27;;;;;;;1.83;100.00;102138.03;10390707;28;20404;-80
2023/03/02 09:05:39;;;;;;;0.68;0.45;;;;;;;2.37;100.00;102142.31;10369409;28;20055;-80
2023/03/02 09:10:41;;;;;;;2.75;1.83;;;;;;;2.86;100.00;102158.00;10393669;28;20104;-78
2023/03/02 09:15:43;;;;;;;0.90;0.85;;;;;;;3.34;100.00;102171.81;10391959;28;20041;-79
2023/03/02 09:20:50;;;;;;;1.25;1.10;;;;;;;3.90;100.00;102204.00;10399903;28;20053;-80
2023/03/02 09:25:52;;;;;;;0.52;0.52;;;;;;;3.76;100.00;102219.13;10410084;28;20103;-81
2023/03/02 09:30:57;;;;;;;0.17;0.17;;;;;;;3.37;100.00;102230.66;10408656;28;20049;-79
2023/03/02 09:36:00;;;;;;;1.58;1.48;;;;;;;4.03;100.00;102221.06;10405687;28;20046;-80
2023/03/02 09:41:20;;;;;;;0.40;0.40;;;;;;;4.58;100.00;102244.59;10391748;28;20045;-80
2023/03/02 09:46:42;;;;;;;1.60;0.65;;;;;;;4.39;100.00;102263.69;10392003;28;20329;-80
2023/03/02 09:52:16;;;;;;;1.48;1.13;;;;;;;4.11;100.00;102286.28;10406646;28;20153;-79
2023/03/02 09:57:38;;;;;;;1.58;1.17;;;;;;;5.39;100.00;102277.56;10399167;28;20056;-80
2023/03/02 10:02:55;;;;;;;0.38;0.38;;;;;;;5.63;100.00;102282.56;10408835;28;20039;-79
2023/03/02 10:08:13;;;;;;;1.13;0.85;;;;;;;5.67;100.00;102293.88;10389116;28;20049;-79
2023/03/02 10:13:21;;;;;;;0.10;0.10;;;;;;;5.70;100.00;102305.22;10377233;28;20045;-80
2023/03/02 10:18:28;;;;;;;3.33;0.85;;;;;;;6.10;100.00;102322.44;10388945;28;20064;-78
2023/03/02 10:23:45;;;;;;;2.55;0.95;;;;;;;6.09;100.00;102338.56;10411727;28;20053;-79
2023/03/02 10:28:55;;;;;;;0.47;0.25;;;;;;;7.01;100.00;102355.59;10396124;28;20409;-78
2023/03/02 10:33:58;;;;;;;0.80;0.80;;;;;;;6.40;100.00;102355.97;10396427;28;20080;-78
2023/03/02 10:39:01;;;;;;;0.70;0.65;;;;;;;6.81;100.00;102354.34;10399968;28;20053;-79
2023/03/02 10:44:13;;;;;;;0.32;0.32;;;;;;;7.50;100.00;102352.66;10398813;28;20108;-79
2023/03/02 10:49:41;;;;;;;2.00;1.27;;;;;;;7.44;100.00;102365.13;10380893;28;20045;-79
2023/03/02 10:54:43;;;;;;;0.22;0.22;;;;;;;7.77;100.00;102370.56;10409896;28;20440;-79
2023/03/02 10:59:46;;;;;;;1.30;0.77;;;;;;;7.35;100.00;102372.22;10402356;28;20046;-78
2023/03/02 11:05:27;;;;;;;1.95;1.05;;;;;;;7.92;100.00;102371.50;10390624;28;20400;-78
2023/03/02 11:10:31;;;;;;;;;;;;;;;8.42;100.00;102377.84;10371314;28;20049;-79
2023/03/02 11:15:39;;;;;;;1.00;0.45;;;;;;;7.87;100.00;102370.31;10391361;28;20343;-77
2023/03/02 11:20:43;;;;;;;0.73;0.73;;;;;;;9.09;100.00;102378.16;10394668;28;20076;-78
2023/03/02 11:25:59;;;;;;;0.75;0.40;;;;;;;7.72;100.00;102371.94;10389026;28;20498;-77
2023/03/02 11:31:05;;;;;;;5.72;1.25;;;;;;;8.41;100.00;102375.19;10397524;28;20080;-78
2023/03/02 11:36:16;;;;;;;1.00;0.88;;;;;;;8.44;100.00;102375.38;10397688;28;20485;-75
2023/03/02 11:41:27;;;;;;;1.92;1.23;;;;;;;8.69;100.00;102375.13;10392243;28;20060;-76
2023/03/02 11:46:31;;;;;;;2.13;0.80;;;;;;;8.88;100.00;102368.47;10396876;28;20056;-76
2023/03/02 11:51:35;;;;;;;0.57;0.55;;;;;;;8.97;100.00;102375.81;10394945;28;20065;-76
2023/03/02 11:56:40;;;;;;;1.08;0.80;;;;;;;8.53;100.00;102370.78;10372050;28;20081;-76
2023/03/02 12:01:47;;;;;;;1.00;1.00;;;;;;;8.88;100.00;102368.47;10389449;28;20046;-76
2023/03/02 12:06:48;;;;;;;2.17;0.98;;;;;;;8.65;100.00;102362.03;10389024;28;20042;-76
2023/03/02 12:11:59;;;;;;;4.60;1.35;;;;;;;9.47;100.00;102353.66;10407514;28;20107;-76
2023/03/02 12:17:24;;;;;;;1.10;0.95;;;;;;;8.88;100.00;102350.47;10379623;28;20045;-76
2023/03/02 12:22:30;;;;;;;1.52;0.95;;;;;;;8.66;100.00;102340.69;10387398;28;20044;-75
2023/03/02 12:27:38;;;;;;;0.22;0.22;;;;;;;10.08;100.00;102327.69;10386244;28;20050;-74
2023/03/02 12:32:42;;;;;;;0.88;0.65;;;;;;;9.45;100.00;102322.72;10369957;28;20050;-77
2023/03/02 12:37:48;;;;;;;1.25;0.50;;;;;;;9.19;100.00;102317.09;10414821;28;20064;-76
2023/03/02 12:43:33;;;;;;;1.13;0.60;;;;;;;9.62;100.00;102309.88;10376126;28;20144;-76
2023/03/02 12:49:06;;;;;;;0.38;0.38;;;;;;;9.48;100.00;102302.31;10409988;28;20041;-75
2023/03/02 12:54:17;;;;;;;1.13;1.00;;;;;;;9.99;100.00;102296.31;10417000;28;20386;-76
2023/03/02 12:59:25;;;;;;;4.80;1.20;;;;;;;9.51;100.00;102291.31;10415528;28;20382;-75
2023/03/02 13:04:29;;;;;;;1.15;0.45;;;;;;;10.32;100.00;102291.06;10398005;28;20045;-76
2023/03/02 13:09:31;;;;;;;0.47;0.43;;;;;;;9.09;100.00;102281.38;10397645;28;20069;-74
2023/03/02 13:14:33;;;;;;;0.30;0.20;;;;;;;10.25;100.00;102273.56;10392412;28;20049;-76
2023/03/02 13:19:35;;;;;;;0.20;0.20;;;;;;;10.62;100.00;102265.06;10397663;28;20049;-76
2023/03/02 13:24:45;;;;;;;1.42;0.82;;;;;;;10.73;100.00;102258.72;10397321;28;20490;-76
2023/03/02 13:29:47;;;;;;;0.40;0.40;;;;;;;9.83;100.00;102254.34;10378682;28;20051;-76
2023/03/02 13:34:55;;;;;;;1.30;0.52;;;;;;;9.91;100.00;102256.44;10414379;28;20496;-75
2023/03/02 13:39:59;;;;;;;1.35;0.98;;;;;;;11.32;100.00;102253.66;10395076;28;20072;-76
2023/03/02 13:45:21;;;;;;;1.00;0.38;;;;;;;11.54;100.00;102254.59;10379720;28;20493;-76
2023/03/02 13:50:30;;;;;;;0.22;0.17;;;;;;;10.63;100.00;102247.09;10379729;28;20059;-76
2023/03/02 13:55:33;;;;;;;1.48;0.60;;;;;;;10.32;100.00;102255.00;10371078;28;20479;-75
2023/03/02 14:00:35;;;;;;;0.50;0.43;;;;;;;10.19;100.00;102247.50;10416281;28;20087;-77
2023/03/02 14:05:36;;;;;;;1.77;0.60;;;;;;;10.25;100.00;102246.13;10422294;28;20045;-76
2023/03/02 14:10:40;;;;;;;0.73;0.60;;;;;;;10.56;100.00;102236.41;10421784;28;20096;-75
2023/03/02 14:15:46;;;;;;;0.95;0.50;;;;;;;10.29;100.00;102229.13;10417886;28;20481;-81
2023/03/02 14:20:48;;;;;;;0.45;0.30;;;;;;;10.72;100.00;102226.03;10397041;28;20156;-79
2023/03/02 14:25:51;;;;;;;2.83;0.52;;;;;;;10.04;100.00;102235.63;10406788;28;20117;-78
2023/03/02 14:30:55;;;;;;;1.27;1.00;;;;;;;10.58;100.00;102237.38;10406663;28;20044;-78
2023/03/02 14:36:00;;;;;;;1.08;0.47;;;;;;;9.82;100.00;102236.28;10394762;28;20091;-77
2023/03/02 14:41:02;;;;;;;3.55;1.20;;;;;;;10.19;100.00;102221.75;10395608;28;20045;-77
2023/03/02 14:46:04;;;;;;;0.30;0.30;;;;;;;9.47;100.00;102233.66;10396162;28;20038;-79
2023/03/02 14:51:20;;;;;;;0.40;0.40;;;;;;;9.98;100.00;102225.03;10394935;28;20381;-77
2023/03/02 14:56:22;;;;;;;0.73;0.55;;;;;;;9.66;100.00;102219.16;10413026;28;20046;-77
2023/03/02 15:01:24;;;;;;;0.95;0.43;;;;;;;9.52;100.00;102219.34;10419189;28;20041;-78
2023/03/02 15:06:29;;;;;;;0.70;0.55;;;;;;;10.01;100.00;102217.47;10410638;28;20045;-78
2023/03/02 15:11:32;;;;;;;0.28;0.20;;;;;;;9.43;100.00;102216.28;10392318;28;20117;-78
2023/03/02 15:16:34;;;;;;;0.82;0.65;;;;;;;9.75;100.00;102219.63;10409896;28;20058;-79
2023/03/02 15:21:40;;;;;;;0.98;0.30;;;;;;;9.48;100.00;102219.09;10406542;28;20172;-80
2023/03/02 15:26:44;;;;;;;1.67;0.98;;;;;;;8.99;100.00;102227.69;10393351;28;20088;-78
2023/03/02 15:31:46;;;;;;;0.60;0.60;;;;;;;9.16;100.00;102220.84;10370724;28;20041;-78
2023/03/02 15:36:48;;;;;;;3.08;2.20;;;;;;;8.76;100.00;102219.63;10393067;28;20045;-77
2023/03/02 15:42:41;;;;;;;1.92;1.20;;;;;;;8.78;100.00;102220.59;10396243;28;20499;-77
2023/03/02 15:47:42;;;;;;;0.80;0.70;;;;;;;8.63;100.00;102227.44;10395223;28;20053;-77
2023/03/02 15:52:44;;;;;;;0.80;0.45;;;;;;;8.42;100.00;102221.16;10410260;28;20041;-76
2023/03/02 15:57:45;;;;;;;3.45;1.23;;;;;;;8.20;100.00;102226.78;10396318;28;20053;-76
2023/03/02 16:02:48;;;;;;;0.57;0.55;;;;;;;8.18;100.00;102227.50;10397182;28;20057;-76
2023/03/02 16:07:50;;;;;;;2.42;1.17;;;;;;;7.85;100.00;102220.53;10409963;28;20120;-75
2023/03/02 16:12:52;;;;;;;7.15;2.22;;;;;;;7.87;100.00;102226.59;10395351;28;20045;-76
2023/03/02 16:17:53;;;;;;;3.70;0.85;;;;;;;7.81;100.00;102226.25;10395103;28;20080;-75
2023/03/02 16:22:55;;;;;;;1.52;0.90;;;;;;;7.41;100.00;102221.34;10407182;28;20038;-76
2023/03/02 16:27:56;;;;;;;1.00;0.90;;;;;;;7.40;100.00;102224.69;10390667;28;20072;-74
2023/03/02 16:33:00;;;;;;;5.47;0.90;;;;;;;7.24;100.00;102226.34;10409860;28;20049;-76
2023/03/02 16:38:03;;;;;;;1.00;0.85;;;;;;;6.92;100.00;102219.25;10406652;28;20465;-76
2023/03/02 16:43:07;;;;;;;1.55;1.45;;;;;;;6.83;100.00;102224.66;10389156;28;20046;-77
2023/03/02 16:48:09;;;;;;;1.50;1.40;;;;;;;6.62;100.00;102227.66;10407209;28;20084;-76
2023/03/02 16:53:14;;;;;;;0.43;0.35;;;;;;;6.39;100.00;102232.97;10389312;28;20064;-76
2023/03/02 16:58:15;;;;;;;1.80;1.33;;;;;;;6.15;100.00;102240.81;10387627;28;20050;-77
2023/03/02 17:03:17;;;;;;;1.25;1.00;;;;;;;6.35;100.00;102243.03;10385882;28;20475;-77
2023/03/02 17:08:19;;;;;;;1.33;0.85;;;;;;;6.05;100.00;102248.69;10414690;28;20041;-77
2023/03/02 17:13:21;;;;;;;0.43;0.43;;;;;;;5.97;100.00;102238.81;10378947;28;20050;-76
2023/03/02 17:18:22;;;;;;;0.43;0.43;;;;;;;5.77;100.00;102249.41;10409434;28;20044;-75
2023/03/02 17:23:26;;;;;;;4.90;1.08;;;;;;;5.47;100.00;102244.84;10390775;28;20392;-75
2023/03/02 17:28:27;;;;;;;1.92;1.40;;;;;;;5.25;100.00;102222.03;10410372;28;20408;-76
2023/03/02 17:33:29;;;;;;;0.52;0.50;;;;;;;4.89;100.00;102205.94;10391427;28;20037;-76
2023/03/02 17:38:30;;;;;;;1.40;1.13;;;;;;;4.91;100.00;102178.84;10395824;28;20049;-76
2023/03/02 17:43:34;;;;;;;1.13;1.02;;;;;;;4.82;100.00;102148.47;10411121;28;20049;-76
2023/03/02 17:48:36;;;;;;;0.63;0.63;;;;;;;4.63;100.00;102137.72;10406321;28;20107;-76
2023/03/02 17:53:37;;;;;;;0.40;0.28;;;;;;;4.42;100.00;102135.44;10405155;28;20041;-76
2023/03/02 17:58:40;;;;;;;1.95;0.65;;;;;;;4.20;100.00;102131.38;10384716;28;20512;-77
2023/03/02 18:03:46;;;;;;;0.50;0.50;;;;;;;4.26;100.00;102123.28;10390317;28;20049;-76
2023/03/02 18:08:49;;;;;;;1.10;1.00;;;;;;;3.97;100.00;102125.50;10384843;28;20080;-75
2023/03/02 18:13:53;;;;;;;0.60;0.55;;;;;;;3.85;100.00;102114.41;10389862;28;20469;-76
2023/03/02 18:18:56;;;;;;;3.58;2.05;;;;;;;3.89;100.00;102105.31;10367343;28;20620;-76
2023/03/02 18:23:57;;;;;;;2.65;0.68;;;;;;;3.71;100.00;102107.44;10401686;28;20048;-77
2023/03/02 18:28:59;;;;;;;1.60;1.30;;;;;;;3.47;100.00;102095.53;10371969;28;20429;-77
2023/03/02 18:34:01;;;;;;;0.65;0.60;;;;;;;3.37;100.00;102079.44;10381968;28;20037;-77
2023/03/02 18:39:03;;;;;;;0.50;0.50;;;;;;;3.20;100.00;102078.19;10373600;28;20049;-76
2023/03/02 18:44:04;;;;;;;1.92;1.75;;;;;;;3.16;100.00;102072.84;10398060;28;20100;-75
2023/03/02 18:49:06;;;;;;;1.23;0.73;;;;;;;2.81;100.00;102063.47;10414149;28;20156;-77
2023/03/02 18:54:08;;;;;;;0.95;0.68;;;;;;;2.79;100.00;102059.91;10378338;28;20320;-76
2023/03/02 18:59:10;;;;;;;0.77;0.77;;;;;;;2.77;100.00;102070.75;10401198;28;20445;-76
2023/03/02 19:04:13;;;;;;;1.27;0.80;;;;;;;2.63;100.00;102077.34;10384675;28;20041;-76
2023/03/02 19:09:14;;;;;;;0.32;0.32;;;;;;;2.67;100.00;102074.25;10395522;28;20110;-76
2023/03/02 19:14:17;;;;;;;0.20;0.20;;;;;;;2.52;100.00;102079.94;10387188;28;20540;-76
2023/03/02 19:19:18;;;;;;;0.32;0.32;;;;;;;2.46;100.00;102079.47;10391503;28;20057;-75
2023/03/02 19:24:20;;;;;;;0.10;0.10;;;;;;;2.41;100.00;102074.78;10413810;28;20077;-76
2023/03/02 19:29:22;;;;;;;0.52;0.52;;;;;;;2.24;100.00;102076.00;10397145;28;20049;-75
2023/03/02 19:34:23;;;;;;;6.70;1.23;;;;;;;2.26;100.00;102074.47;10389526;28;20049;-76
2023/03/02 19:39:25;;;;;;;3.25;2.00;;;;;;;2.26;100.00;102071.94;10391046;28;20107;-76
2023/03/02 19:44:26;;;;;;;3.47;1.38;;;;;;;2.11;100.00;102069.06;10367952;28;20539;-76
2023/03/02 19:49:28;;;;;;;3.83;1.15;;;;;;;2.01;100.00;102077.63;10396159;28;20053;-76
2023/03/02 19:54:31;;;;;;;0.32;0.17;;;;;;;1.95;100.00;102077.13;10404873;28;20049;-77
2023/03/02 19:59:32;;;;;;;0.32;0.32;;;;;;;1.93;100.00;102068.50;10394274;28;20049;-76
2023/03/02 20:04:34;;;;;;;1.02;0.95;;;;;;;1.98;100.00;102063.00;10392146;28;20053;-76
2023/03/02 20:09:35;;;;;;;0.10;0.10;;;;;;;1.88;100.00;102073.19;10392712;28;20115;-76
2023/03/02 20:14:39;;;;;;;0.32;0.32;;;;;;;1.89;100.00;102063.19;10372511;28;20037;-76
2023/03/02 20:19:42;;;;;;;0.30;0.30;;;;;;;1.79;100.00;102054.69;10386575;28;20049;-76
2023/03/02 20:24:44;;;;;;;0.85;0.85;;;;;;;1.87;100.00;102063.78;10388601;28;20091;-76
2023/03/02 20:29:47;;;;;;;0.22;0.22;;;;;;;1.76;100.00;102068.00;10393742;28;20049;-76
2023/03/02 20:34:48;;;;;;;1.08;0.77;;;;;;;1.69;100.00;102078.44;10393919;28;20049;-76
2023/03/02 20:39:50;;;;;;;0.50;0.50;;;;;;;1.67;100.00;102074.94;10414197;28;20045;-77
2023/03/02 20:44:55;;;;;;;0.75;0.68;;;;;;;1.58;100.00;102081.03;10386301;28;20038;-76
2023/03/02 20:49:57;;;;;;;0.30;0.30;;;;;;;1.50;100.00;102087.13;10382093;28;20563;-77
2023/03/02 20:54:58;;;;;;;0.65;0.65;;;;;;;1.43;100.00;102087.41;10393431;28;20455;-76
2023/03/02 21:00:00;;;;;;;0.50;0.43;;;;;;;1.48;100.00;102087.78;10411302;28;20432;-76
2023/03/02 21:05:03;;;;;;;0.30;0.30;;;;;;;1.31;100.00;102088.91;10398974;28;20049;-76
2023/03/02 21:10:08;;;;;;;0.63;0.63;;;;;;;1.33;100.00;102083.22;10418351;28;20051;-76
2023/03/02 21:15:11;;;;;;;0.25;0.25;;;;;;;1.42;100.00;102078.00;10405019;28;20068;-75
2023/03/02 21:20:13;;;;;;;0.45;0.45;;;;;;;1.20;100.00;102066.09;10414610;28;20091;-76
2023/03/02 21:25:18;;;;;;;0.35;0.35;;;;;;;1.16;100.00;102048.81;10410202;28;20041;-75
2023/03/02 21:30:26;;;;;;;0.38;0.38;;;;;;;1.18;100.00;102047.28;10394647;28;20568;-76
2023/03/02 21:35:29;;;;;;;0.43;0.43;;;;;;;1.32;100.00;102040.81;10418153;28;20481;-75
2023/03/02 21:40:34;;;;;;;1.40;0.80;;;;;;;1.32;100.00;102034.81;10399177;28;20500;-77
2023/03/02 21:45:37;;;;;;;1.20;1.17;;;;;;;1.43;100.00;102023.91;10428459;28;20038;-76
2023/03/02 21:50:39;;;;;;;1.65;1.02;;;;;;;1.47;100.00;102025.03;10411262;28;20053;-75
2023/03/02 21:55:41;;;;;;;0.68;0.68;;;;;;;1.40;100.00;102018.56;10413865;28;20058;-76
2023/03/02 22:00:44;;;;;;;0.75;0.75;;;;;;;1.61;100.00;102028.69;10404592;28;20069;-76
2023/03/02 22:05:45;;;;;;;8.55;1.80;;;;;;;1.48;100.00;102029.38;10421437;28;20038;-75
2023/03/02 22:10:49;;;;;;;0.75;0.75;;;;;;;1.31;100.00;102040.66;10385839;28;20132;-76
2023/03/02 22:16:01;;;;;;;1.15;0.85;;;;;;;1.32;100.00;102043.34;10412387;28;20045;-76
2023/03/02 22:21:22;;;;;;;4.72;2.28;;;;;;;1.13;100.00;102045.13;10388264;28;20049;-76
2023/03/02 22:26:24;;;;;;;5.50;0.40;;;;;;;1.08;100.00;102054.94;10422764;28;20048;-76
2023/03/02 22:31:26;;;;;;;0.98;0.98;;;;;;;0.97;100.00;102066.69;10444800;28;20049;-77
2023/03/02 22:36:27;;;;;;;0.63;0.63;;;;;;;0.80;100.00;102062.75;10425974;28;20505;-76
2023/03/02 22:41:29;;;;;;;0.10;0.10;;;;;;;0.81;100.00;102059.44;10420305;28;20045;-75
2023/03/02 22:46:30;;;;;;;0.80;0.75;;;;;;;1.16;100.00;102063.16;10439668;28;20030;-76
2023/03/02 22:51:33;;;;;;;0.32;0.32;;;;;;;1.20;100.00;102066.09;10395589;28;20411;-76
2023/03/02 22:56:37;;;;;;;1.05;0.63;;;;;;;0.81;100.00;102072.13;10446580;28;20045;-76
2023/03/02 23:01:41;;;;;;;0.13;0.13;;;;;;;0.88;100.00;102082.03;10425931;28;20080;-76
2023/03/02 23:06:46;;;;;;;0.73;0.73;;;;;;;1.03;100.00;102079.00;10430806;28;20485;-77
2023/03/02 23:11:49;;;;;;;2.30;1.48;;;;;;;1.10;100.00;102078.75;10406315;28;20107;-77
2023/03/02 23:16:55;;;;;;;0.68;0.47;;;;;;;0.93;100.00;102078.22;10402430;28;20505;-76